sensor_id;sensor_type;location;lat;lon;timestamp;temperature;humidity
4201;DHT22;2114;50.398;8.814;2023-03-13T00:04:26;5.50;99.90
4201;DHT22;2114;50.398;8.814;2023-03-13T00:09:26;5.60;99.90
4201;DHT22;2114;50.398;8.814;2023-03-13T00:14:27;5.60;99.90
4201;DHT22;2114;50.398;8.814;2023-03-13T00:19:27;5.60;99.90
4201;DHT22;2114;50.398;8.814;2023-03-13T00:24:28;5.50;99.90
4201;DHT22;2114;50.398;8.814;2023-03-13T00:29:29;5.50;99.90
4201;DHT22;2114;50.398;8.814;2023-03-13T00:34:31;5.60;99.90
4201;DHT22;2114;50.398;8.814;2023-03-13T00:39:31;5.50;99.90
4201;DHT22;2114;50.398;8.814;2023-03-13T00:44:32;5.60;99.90
4201;DHT22;2114;50.398;8.814;2023-03-13T00:49:32;5.50;99.90
4201;DHT22;2114;50.398;8.814;2023-03-13T00:54:33;5.60;99.90
4201;DHT22;2114;50.398;8.814;2023-03-13T00:59:34;5.60;99.90
4201;DHT22;2114;50.398;8.814;2023-03-13T01:04:35;5.60;99.90
4201;DHT22;2114;50.398;8.814;2023-03-13T01:09:35;5.50;99.90
4201;DHT22;2114;50.398;8.814;2023-03-13T01:14:36;5.50;99.90
4201;DHT22;2114;50.398;8.814;2023-03-13T01:19:43;5.50;99.90
4201;DHT22;2114;50.398;8.814;2023-03-13T01:24:46;5.60;99.90
4201;DHT22;2114;50.398;8.814;2023-03-13T01:29:59;5.60;99.90
4201;DHT22;2114;50.398;8.814;2023-03-13T01:35:11;5.60;99.90
4201;DHT22;2114;50.398;8.814;2023-03-13T01:40:15;5.60;99.90
4201;DHT22;2114;50.398;8.814;2023-03-13T01:50:58;5.70;99.90
4201;DHT22;2114;50.398;8.814;2023-03-13T01:56:05;5.70;99.90
4201;DHT22;2114;50.398;8.814;2023-03-13T02:01:14;5.80;99.90
4201;DHT22;2114;50.398;8.814;2023-03-13T02:06:19;5.80;99.90
4201;DHT22;2114;50.398;8.814;2023-03-13T02:11:55;5.90;99.90
4201;DHT22;2114;50.398;8.814;2023-03-13T02:17:05;5.90;99.90
4201;DHT22;2114;50.398;8.814;2023-03-13T02:33:56;6.10;99.90
4201;DHT22;2114;50.398;8.814;2023-03-13T02:39:05;6.20;99.90
4201;DHT22;2114;50.398;8.814;2023-03-13T02:44:11;6.20;99.90
4201;DHT22;2114;50.398;8.814;2023-03-13T02:49:30;6.10;99.90
4201;DHT22;2114;50.398;8.814;2023-03-13T02:54:44;6.20;99.90
4201;DHT22;2114;50.398;8.814;2023-03-13T02:59:53;6.20;99.90
4201;DHT22;2114;50.398;8.814;2023-03-13T03:04:57;6.20;99.90
4201;DHT22;2114;50.398;8.814;2023-03-13T03:10:01;6.20;99.90
4201;DHT22;2114;50.398;8.814;2023-03-13T03:15:28;6.20;99.90
4201;DHT22;2114;50.398;8.814;2023-03-13T03:20:31;6.30;99.90
4201;DHT22;2114;50.398;8.814;2023-03-13T03:25:37;6.20;99.90
4201;DHT22;2114;50.398;8.814;2023-03-13T03:30:49;6.30;99.90
4201;DHT22;2114;50.398;8.814;2023-03-13T03:35:59;6.30;99.90
4201;DHT22;2114;50.398;8.814;2023-03-13T03:41:02;6.30;99.90
4201;DHT22;2114;50.398;8.814;2023-03-13T03:46:09;6.40;99.90
4201;DHT22;2114;50.398;8.814;2023-03-13T03:51:14;6.30;99.90
4201;DHT22;2114;50.398;8.814;2023-03-13T03:56:20;6.30;99.90
4201;DHT22;2114;50.398;8.814;2023-03-13T04:01:27;6.40;99.90
4201;DHT22;2114;50.398;8.814;2023-03-13T04:06:31;6.40;99.90
4201;DHT22;2114;50.398;8.814;2023-03-13T04:11:35;6.40;99.90
4201;DHT22;2114;50.398;8.814;2023-03-13T04:16:42;6.50;99.90
4201;DHT22;2114;50.398;8.814;2023-03-13T04:21:44;6.50;99.90
4201;DHT22;2114;50.398;8.814;2023-03-13T04:26:46;6.50;99.90
4201;DHT22;2114;50.398;8.814;2023-03-13T04:31:53;6.70;99.90
4201;DHT22;2114;50.398;8.814;2023-03-13T04:37:04;6.80;99.90
4201;DHT22;2114;50.398;8.814;2023-03-13T04:42:08;6.80;99.90
4201;DHT22;2114;50.398;8.814;2023-03-13T04:47:15;6.80;99.90
4201;DHT22;2114;50.398;8.814;2023-03-13T04:52:17;6.80;99.90
4201;DHT22;2114;50.398;8.814;2023-03-13T04:57:26;6.80;99.90
4201;DHT22;2114;50.398;8.814;2023-03-13T05:02:33;6.90;99.90
4201;DHT22;2114;50.398;8.814;2023-03-13T05:07:42;6.90;99.90
4201;DHT22;2114;50.398;8.814;2023-03-13T05:12:47;6.90;99.90
4201;DHT22;2114;50.398;8.814;2023-03-13T05:17:54;6.90;99.90
4201;DHT22;2114;50.398;8.814;2023-03-13T05:22:57;7.00;99.90
4201;DHT22;2114;50.398;8.814;2023-03-13T05:28:03;6.90;99.90
4201;DHT22;2114;50.398;8.814;2023-03-13T05:33:07;7.00;99.90
4201;DHT22;2114;50.398;8.814;2023-03-13T05:38:14;7.00;99.90
4201;DHT22;2114;50.398;8.814;2023-03-13T05:43:47;7.10;99.90
4201;DHT22;2114;50.398;8.814;2023-03-13T05:48:52;7.00;99.90
4201;DHT22;2114;50.398;8.814;2023-03-13T05:54:12;7.00;99.90
4201;DHT22;2114;50.398;8.814;2023-03-13T05:59:13;7.00;99.90
4201;DHT22;2114;50.398;8.814;2023-03-13T06:04:20;7.00;99.90
4201;DHT22;2114;50.398;8.814;2023-03-13T06:09:24;7.10;99.90
4201;DHT22;2114;50.398;8.814;2023-03-13T06:14:33;7.10;99.90
4201;DHT22;2114;50.398;8.814;2023-03-13T06:19:38;7.10;99.90
4201;DHT22;2114;50.398;8.814;2023-03-13T06:24:41;7.20;99.90
4201;DHT22;2114;50.398;8.814;2023-03-13T06:29:51;7.20;99.90
4201;DHT22;2114;50.398;8.814;2023-03-13T06:35:05;7.20;99.90
4201;DHT22;2114;50.398;8.814;2023-03-13T06:40:20;7.30;99.90
4201;DHT22;2114;50.398;8.814;2023-03-13T06:45:24;7.30;99.90
4201;DHT22;2114;50.398;8.814;2023-03-13T06:50:32;7.40;99.90
4201;DHT22;2114;50.398;8.814;2023-03-13T06:55:33;7.50;99.90
4201;DHT22;2114;50.398;8.814;2023-03-13T07:00:34;7.60;99.90
4201;DHT22;2114;50.398;8.814;2023-03-13T07:05:34;7.70;99.90
4201;DHT22;2114;50.398;8.814;2023-03-13T07:10:35;7.80;99.90
4201;DHT22;2114;50.398;8.814;2023-03-13T07:15:36;7.90;99.90
4201;DHT22;2114;50.398;8.814;2023-03-13T07:20:36;8.00;99.90
4201;DHT22;2114;50.398;8.814;2023-03-13T07:25:37;8.10;99.90
4201;DHT22;2114;50.398;8.814;2023-03-13T07:30:37;8.10;99.90
4201;DHT22;2114;50.398;8.814;2023-03-13T07:35:38;8.20;99.90
4201;DHT22;2114;50.398;8.814;2023-03-13T07:40:39;8.20;99.90
4201;DHT22;2114;50.398;8.814;2023-03-13T07:45:52;8.30;99.90
4201;DHT22;2114;50.398;8.814;2023-03-13T07:50:54;8.40;99.90
4201;DHT22;2114;50.398;8.814;2023-03-13T07:56:05;8.60;99.90
4201;DHT22;2114;50.398;8.814;2023-03-13T08:01:16;8.80;99.90
4201;DHT22;2114;50.398;8.814;2023-03-13T08:06:22;8.90;99.90
4201;DHT22;2114;50.398;8.814;2023-03-13T08:11:24;9.10;99.90
4201;DHT22;2114;50.398;8.814;2023-03-13T08:16:30;9.00;99.90
4201;DHT22;2114;50.398;8.814;2023-03-13T08:21:35;9.00;99.90
4201;DHT22;2114;50.398;8.814;2023-03-13T08:26:37;9.00;99.90
4201;DHT22;2114;50.398;8.814;2023-03-13T08:31:43;9.00;99.90
4201;DHT22;2114;50.398;8.814;2023-03-13T08:36:44;9.20;99.90
4201;DHT22;2114;50.398;8.814;2023-03-13T08:41:45;9.10;99.90
4201;DHT22;2114;50.398;8.814;2023-03-13T08:46:46;9.20;99.90
4201;DHT22;2114;50.398;8.814;2023-03-13T08:51:48;9.30;99.90
4201;DHT22;2114;50.398;8.814;2023-03-13T08:56:49;9.40;99.90
4201;DHT22;2114;50.398;8.814;2023-03-13T09:01:49;9.40;99.90
4201;DHT22;2114;50.398;8.814;2023-03-13T09:06:50;9.50;99.90
4201;DHT22;2114;50.398;8.814;2023-03-13T09:11:50;9.50;99.90
4201;DHT22;2114;50.398;8.814;2023-03-13T09:16:51;9.50;99.90
4201;DHT22;2114;50.398;8.814;2023-03-13T09:21:51;9.70;99.90
4201;DHT22;2114;50.398;8.814;2023-03-13T09:26:52;9.90;99.90
4201;DHT22;2114;50.398;8.814;2023-03-13T09:31:53;10.10;99.90
4201;DHT22;2114;50.398;8.814;2023-03-13T09:36:53;10.40;99.90
4201;DHT22;2114;50.398;8.814;2023-03-13T09:42:06;10.70;99.90
4201;DHT22;2114;50.398;8.814;2023-03-13T09:47:19;10.80;99.90
4201;DHT22;2114;50.398;8.814;2023-03-13T09:52:28;10.90;99.90
4201;DHT22;2114;50.398;8.814;2023-03-13T09:57:34;10.80;99.90
4201;DHT22;2114;50.398;8.814;2023-03-13T10:02:37;10.80;99.90
4201;DHT22;2114;50.398;8.814;2023-03-13T10:07:37;10.90;99.90
4201;DHT22;2114;50.398;8.814;2023-03-13T10:12:43;10.90;99.90
4201;DHT22;2114;50.398;8.814;2023-03-13T10:17:44;10.80;99.90
4201;DHT22;2114;50.398;8.814;2023-03-13T10:22:45;10.80;99.90
4201;DHT22;2114;50.398;8.814;2023-03-13T10:27:49;10.90;99.90
4201;DHT22;2114;50.398;8.814;2023-03-13T10:32:53;11.20;99.90
4201;DHT22;2114;50.398;8.814;2023-03-13T10:38:13;11.60;99.90
4201;DHT22;2114;50.398;8.814;2023-03-13T10:43:19;11.80;99.90
4201;DHT22;2114;50.398;8.814;2023-03-13T10:48:29;11.90;99.90
4201;DHT22;2114;50.398;8.814;2023-03-13T10:53:36;12.10;99.90
4201;DHT22;2114;50.398;8.814;2023-03-13T10:58:51;12.20;99.90
4201;DHT22;2114;50.398;8.814;2023-03-13T11:03:54;12.20;99.90
4201;DHT22;2114;50.398;8.814;2023-03-13T11:09:14;12.30;99.90
4201;DHT22;2114;50.398;8.814;2023-03-13T11:14:24;12.40;99.90
4201;DHT22;2114;50.398;8.814;2023-03-13T11:24:43;12.90;99.90
4201;DHT22;2114;50.398;8.814;2023-03-13T11:30:07;13.20;99.90
4201;DHT22;2114;50.398;8.814;2023-03-13T11:40:36;13.50;99.90
4201;DHT22;2114;50.398;8.814;2023-03-13T11:56:26;13.80;99.90
4201;DHT22;2114;50.398;8.814;2023-03-13T12:01:36;13.90;99.90
4201;DHT22;2114;50.398;8.814;2023-03-13T12:06:55;14.00;99.90
4201;DHT22;2114;50.398;8.814;2023-03-13T12:12:02;14.10;99.90
4201;DHT22;2114;50.398;8.814;2023-03-13T12:17:15;14.30;99.90
4201;DHT22;2114;50.398;8.814;2023-03-13T12:22:22;14.30;99.90
4201;DHT22;2114;50.398;8.814;2023-03-13T12:27:30;14.40;99.90
4201;DHT22;2114;50.398;8.814;2023-03-13T12:32:57;14.20;99.90
4201;DHT22;2114;50.398;8.814;2023-03-13T12:43:30;13.70;99.90
4201;DHT22;2114;50.398;8.814;2023-03-13T12:58:53;13.20;99.90
4201;DHT22;2114;50.398;8.814;2023-03-13T13:04:13;13.10;99.90
4201;DHT22;2114;50.398;8.814;2023-03-13T13:09:29;12.90;99.90
4201;DHT22;2114;50.398;8.814;2023-03-13T13:24:58;12.80;99.90
4201;DHT22;2114;50.398;8.814;2023-03-13T13:35:24;12.80;99.90
4201;DHT22;2114;50.398;8.814;2023-03-13T13:40:30;12.80;99.90
4201;DHT22;2114;50.398;8.814;2023-03-13T13:45:35;12.70;99.90
4201;DHT22;2114;50.398;8.814;2023-03-13T13:50:36;12.70;99.90
4201;DHT22;2114;50.398;8.814;2023-03-13T13:55:40;12.70;99.90
4201;DHT22;2114;50.398;8.814;2023-03-13T14:00:54;12.70;99.90
4201;DHT22;2114;50.398;8.814;2023-03-13T14:06:26;12.60;99.90
4201;DHT22;2114;50.398;8.814;2023-03-13T14:11:37;12.60;99.90
4201;DHT22;2114;50.398;8.814;2023-03-13T14:16:38;12.60;99.90
4201;DHT22;2114;50.398;8.814;2023-03-13T14:21:42;12.70;99.90
4201;DHT22;2114;50.398;8.814;2023-03-13T14:26:43;12.70;99.90
4201;DHT22;2114;50.398;8.814;2023-03-13T14:31:51;12.70;99.90
4201;DHT22;2114;50.398;8.814;2023-03-13T14:37:00;12.80;99.90
4201;DHT22;2114;50.398;8.814;2023-03-13T14:47:29;12.70;99.90
4201;DHT22;2114;50.398;8.814;2023-03-13T14:52:31;12.60;99.90
4201;DHT22;2114;50.398;8.814;2023-03-13T14:57:33;12.40;99.90
4201;DHT22;2114;50.398;8.814;2023-03-13T15:02:34;12.40;99.90
4201;DHT22;2114;50.398;8.814;2023-03-13T15:12:42;12.10;99.90
4201;DHT22;2114;50.398;8.814;2023-03-13T15:17:43;12.00;99.90
4201;DHT22;2114;50.398;8.814;2023-03-13T15:22:44;11.90;99.90
4201;DHT22;2114;50.398;8.814;2023-03-13T15:27:46;11.80;99.90
4201;DHT22;2114;50.398;8.814;2023-03-13T15:32:47;11.80;99.90
4201;DHT22;2114;50.398;8.814;2023-03-13T15:37:48;11.70;99.90
4201;DHT22;2114;50.398;8.814;2023-03-13T15:42:50;11.60;99.90
4201;DHT22;2114;50.398;8.814;2023-03-13T15:47:51;11.50;99.90
4201;DHT22;2114;50.398;8.814;2023-03-13T15:52:51;11.50;99.90
4201;DHT22;2114;50.398;8.814;2023-03-13T15:57:52;11.50;99.90
4201;DHT22;2114;50.398;8.814;2023-03-13T16:02:53;11.40;99.90
4201;DHT22;2114;50.398;8.814;2023-03-13T16:07:53;11.40;99.90
4201;DHT22;2114;50.398;8.814;2023-03-13T16:12:54;11.60;99.90
4201;DHT22;2114;50.398;8.814;2023-03-13T16:17:55;11.70;99.90
4201;DHT22;2114;50.398;8.814;2023-03-13T16:22:55;11.90;99.90
4201;DHT22;2114;50.398;8.814;2023-03-13T16:27:57;12.10;99.90
4201;DHT22;2114;50.398;8.814;2023-03-13T16:32:58;12.10;99.90
4201;DHT22;2114;50.398;8.814;2023-03-13T16:37:59;12.20;99.90
4201;DHT22;2114;50.398;8.814;2023-03-13T16:43:00;12.20;99.90
4201;DHT22;2114;50.398;8.814;2023-03-13T16:48:00;12.10;99.90
4201;DHT22;2114;50.398;8.814;2023-03-13T16:53:02;12.10;99.90
4201;DHT22;2114;50.398;8.814;2023-03-13T16:58:03;12.10;99.90
4201;DHT22;2114;50.398;8.814;2023-03-13T17:03:04;12.00;99.90
4201;DHT22;2114;50.398;8.814;2023-03-13T17:08:05;12.00;99.90
4201;DHT22;2114;50.398;8.814;2023-03-13T17:13:05;11.90;99.90
4201;DHT22;2114;50.398;8.814;2023-03-13T17:18:08;11.80;99.90
4201;DHT22;2114;50.398;8.814;2023-03-13T17:23:09;11.80;99.90
4201;DHT22;2114;50.398;8.814;2023-03-13T17:28:13;11.80;99.90
4201;DHT22;2114;50.398;8.814;2023-03-13T17:33:14;11.70;99.90
4201;DHT22;2114;50.398;8.814;2023-03-13T17:38:14;11.70;99.90
4201;DHT22;2114;50.398;8.814;2023-03-13T17:43:15;11.60;99.90
4201;DHT22;2114;50.398;8.814;2023-03-13T17:48:15;11.60;99.90
4201;DHT22;2114;50.398;8.814;2023-03-13T17:53:18;11.60;99.90
4201;DHT22;2114;50.398;8.814;2023-03-13T17:58:19;11.50;99.90
4201;DHT22;2114;50.398;8.814;2023-03-13T18:03:20;11.50;99.90
4201;DHT22;2114;50.398;8.814;2023-03-13T18:08:22;11.50;99.90
4201;DHT22;2114;50.398;8.814;2023-03-13T18:13:22;11.40;99.90
4201;DHT22;2114;50.398;8.814;2023-03-13T18:18:23;11.40;99.90
4201;DHT22;2114;50.398;8.814;2023-03-13T18:23:24;11.30;99.90
4201;DHT22;2114;50.398;8.814;2023-03-13T18:28:24;11.30;99.90
4201;DHT22;2114;50.398;8.814;2023-03-13T18:33:25;11.30;99.90
4201;DHT22;2114;50.398;8.814;2023-03-13T18:38:25;11.20;99.90
4201;DHT22;2114;50.398;8.814;2023-03-13T18:43:26;11.20;99.90
4201;DHT22;2114;50.398;8.814;2023-03-13T18:48:27;11.20;99.90
4201;DHT22;2114;50.398;8.814;2023-03-13T18:53:27;11.20;99.90
4201;DHT22;2114;50.398;8.814;2023-03-13T18:58:28;11.20;99.90
4201;DHT22;2114;50.398;8.814;2023-03-13T19:03:28;11.10;99.90
4201;DHT22;2114;50.398;8.814;2023-03-13T19:08:29;11.10;99.90
4201;DHT22;2114;50.398;8.814;2023-03-13T19:13:29;11.10;99.90
4201;DHT22;2114;50.398;8.814;2023-03-13T19:18:34;11.10;99.90
4201;DHT22;2114;50.398;8.814;2023-03-13T19:23:35;11.10;99.90
4201;DHT22;2114;50.398;8.814;2023-03-13T19:28:35;11.00;99.90
4201;DHT22;2114;50.398;8.814;2023-03-13T19:33:36;11.00;99.90
4201;DHT22;2114;50.398;8.814;2023-03-13T19:38:37;11.00;99.90
4201;DHT22;2114;50.398;8.814;2023-03-13T19:43:39;11.00;99.90
4201;DHT22;2114;50.398;8.814;2023-03-13T19:48:40;11.00;99.90
4201;DHT22;2114;50.398;8.814;2023-03-13T19:53:41;11.00;99.90
4201;DHT22;2114;50.398;8.814;2023-03-13T19:58:42;10.90;99.90
4201;DHT22;2114;50.398;8.814;2023-03-13T20:03:43;10.90;99.90
4201;DHT22;2114;50.398;8.814;2023-03-13T20:08:44;10.90;99.90
4201;DHT22;2114;50.398;8.814;2023-03-13T20:13:45;10.90;99.90
4201;DHT22;2114;50.398;8.814;2023-03-13T20:18:48;10.80;99.90
4201;DHT22;2114;50.398;8.814;2023-03-13T20:23:49;10.80;99.90
4201;DHT22;2114;50.398;8.814;2023-03-13T20:28:51;10.80;99.90
4201;DHT22;2114;50.398;8.814;2023-03-13T20:33:52;10.80;99.90
4201;DHT22;2114;50.398;8.814;2023-03-13T20:38:52;10.70;99.90
4201;DHT22;2114;50.398;8.814;2023-03-13T20:43:53;10.60;99.90
4201;DHT22;2114;50.398;8.814;2023-03-13T20:48:53;10.60;99.90
4201;DHT22;2114;50.398;8.814;2023-03-13T20:53:54;10.50;99.90
4201;DHT22;2114;50.398;8.814;2023-03-13T20:58:55;10.40;99.90
4201;DHT22;2114;50.398;8.814;2023-03-13T21:03:55;10.40;99.90
4201;DHT22;2114;50.398;8.814;2023-03-13T21:08:56;10.40;99.90
4201;DHT22;2114;50.398;8.814;2023-03-13T21:13:56;10.30;99.90
4201;DHT22;2114;50.398;8.814;2023-03-13T21:18:57;10.20;99.90
4201;DHT22;2114;50.398;8.814;2023-03-13T21:23:58;10.10;99.90
4201;DHT22;2114;50.398;8.814;2023-03-13T21:28:58;10.10;99.90
4201;DHT22;2114;50.398;8.814;2023-03-13T21:33:59;10.00;99.90
4201;DHT22;2114;50.398;8.814;2023-03-13T21:39:00;9.90;99.90
4201;DHT22;2114;50.398;8.814;2023-03-13T21:44:01;9.80;99.90
4201;DHT22;2114;50.398;8.814;2023-03-13T21:49:02;9.70;99.90
4201;DHT22;2114;50.398;8.814;2023-03-13T21:54:03;9.60;99.90
4201;DHT22;2114;50.398;8.814;2023-03-13T21:59:03;9.60;99.90
4201;DHT22;2114;50.398;8.814;2023-03-13T22:04:04;9.50;99.90
4201;DHT22;2114;50.398;8.814;2023-03-13T22:09:05;9.40;99.90
4201;DHT22;2114;50.398;8.814;2023-03-13T22:14:07;9.50;99.90
4201;DHT22;2114;50.398;8.814;2023-03-13T22:19:08;9.40;99.90
4201;DHT22;2114;50.398;8.814;2023-03-13T22:24:09;9.40;99.90
4201;DHT22;2114;50.398;8.814;2023-03-13T22:29:09;9.30;99.90
4201;DHT22;2114;50.398;8.814;2023-03-13T22:34:10;9.30;99.90
4201;DHT22;2114;50.398;8.814;2023-03-13T22:39:10;9.30;99.90
4201;DHT22;2114;50.398;8.814;2023-03-13T22:44:11;9.30;99.90
4201;DHT22;2114;50.398;8.814;2023-03-13T22:49:12;9.20;99.90
4201;DHT22;2114;50.398;8.814;2023-03-13T22:54:12;9.10;99.90
4201;DHT22;2114;50.398;8.814;2023-03-13T22:59:13;9.10;99.90
4201;DHT22;2114;50.398;8.814;2023-03-13T23:04:13;9.00;99.90
4201;DHT22;2114;50.398;8.814;2023-03-13T23:09:14;9.10;99.90
4201;DHT22;2114;50.398;8.814;2023-03-13T23:14:15;9.00;99.90
4201;DHT22;2114;50.398;8.814;2023-03-13T23:19:15;8.90;99.90
4201;DHT22;2114;50.398;8.814;2023-03-13T23:24:16;8.90;99.90
4201;DHT22;2114;50.398;8.814;2023-03-13T23:29:16;8.80;99.90
4201;DHT22;2114;50.398;8.814;2023-03-13T23:34:17;8.80;99.90
4201;DHT22;2114;50.398;8.814;2023-03-13T23:39:21;8.80;99.90
4201;DHT22;2114;50.398;8.814;2023-03-13T23:44:21;8.80;99.90
4201;DHT22;2114;50.398;8.814;2023-03-13T23:49:22;8.80;99.90
4201;DHT22;2114;50.398;8.814;2023-03-13T23:54:22;8.80;99.90
4201;DHT22;2114;50.398;8.814;2023-03-13T23:59:23;8.80;99.90
